Quesnel Airport
CYQZ : now visible

Airfield :











YOU CAN JOIN US ON...

 
LOGIN :

Register | Disclaimer

   EN    FR    IT 

 









Legend :    VFR   Marginal VFR   IFR   Intensive IFR   Very Intensive IFR
Visi :
Ceiling :
>= 8 km
>= 3000ft
5 to 8 km
1000 to 3000 ft
1500m to 5 km
500 to 1000 ft
800 to 1500m
200 to 500 ft
< 800m
< 200 ft
Symbols :   Thunderstorms  Fog  Heavy snow  Heavy precipitations  Wind > 20 kt






- Airport Elevation : 1789 ft
- IATA code : YQZ


CYQZ - Quesnel

CURRENT METAR :
  • 080432Z AUTO VRB02KT 9SM -RA SCT060 OVC076 16/12 A2990 RMK SLP134 DENSITY ALT 2200FT

EXPIRED METARs :
  • 080412Z AUTO 17004KT 9SM -RA SCT055 BKN077 OVC089 16/14 A2989 RMK SLP132 DENSITY ALT 2300FT
  • 080400Z AUTO 14002KT 9SM BKN080 OVC090 15/14 A2989 RMK SLP131 DENSITY ALT 2200FT
  • 080300Z AUTO 17003KT 140V230 9SM FEW065 BKN093 OVC110 17/13 A2988 RMK SLP126 DENSITY ALT 2400FT
  • 080200Z AUTO 10004KT 080V210 9SM OVC080 16/14 A2988 RMK SLP127 DENSITY ALT 2300FT
  • 080159Z AUTO 10004KT 080V220 9SM OVC080 16/14 A2988 RMK SLP127 DENSITY ALT 2300FT

TAF TAF CYQZ
Valid from the 08 at 01:00 until the 08 at 06:00 UTC


080038Z 0801/0806 VRB03KT P6SM FEW030 BKN070 BKN110
TEMPO 0801/0806 P6SM -SHRA RMK FCST BASED ON AUTO OBS. NXT FCST WILL BE ISSUED AT 081145Z
CZVR FIR / North America



MET'MAP, your aeronautical weather chart ! - Copyright ORBIFLY December 2007 - Disclaimer

ORBIFLY MET'MAP TEAM :

Programming & Development : Alexandra Zaïnal
Concept & original design : Baudouin d'Aumeries
Assistance for programming : Marc-Olivier Méhu
Technical & hardware support : Manuel Goepfert

Contact : metmap@orbifly.com




SOURCES & CREDITS :

   NOAA       Earth
Advisory